createdAt,value
2019-02-27T00:02:05.058Z,103195.83
2019-02-27T00:04:35.532Z,103199.19
2019-02-27T00:07:03.826Z,103188.94
2019-02-27T00:09:33.449Z,103193.97
2019-02-27T00:12:02.554Z,103182.45
2019-02-27T00:14:31.932Z,103185.78
2019-02-27T00:17:01.212Z,103190.02
2019-02-27T00:19:31.890Z,103187.70
2019-02-27T00:22:00.784Z,103182.31
2019-02-27T00:24:30.663Z,103185.25
2019-02-27T00:27:00.302Z,103178.13
2019-02-27T00:29:29.642Z,103172.61
2019-02-27T00:31:58.970Z,103172.61
2019-02-27T00:34:28.275Z,103171.68
2019-02-27T00:36:57.561Z,103173.30
2019-02-27T00:39:31.064Z,103168.47
2019-02-27T00:41:56.124Z,103167.58
2019-02-27T00:44:25.496Z,103163.65
2019-02-27T00:46:54.840Z,103159.80
2019-02-27T00:49:24.182Z,103156.92
2019-02-27T00:51:53.440Z,103156.62
2019-02-27T00:54:22.764Z,103155.00
2019-02-27T00:56:52.044Z,103152.45
2019-02-27T00:59:21.365Z,103159.14
2019-02-27T01:01:50.666Z,103149.59
2019-02-27T01:04:19.959Z,103154.52
2019-02-27T01:06:49.276Z,103146.77
2019-02-27T01:09:18.562Z,103142.52
2019-02-27T01:11:51.638Z,103137.70
2019-02-27T01:14:17.126Z,103136.39
2019-02-27T01:16:47.748Z,103143.08
2019-02-27T01:19:15.689Z,103136.62
2019-02-27T01:21:44.966Z,103136.25
2019-02-27T01:24:14.990Z,103135.98
2019-02-27T01:26:43.571Z,103134.35
2019-02-27T01:29:12.876Z,103126.19
2019-02-27T01:31:42.171Z,103120.12
2019-02-27T01:34:11.966Z,103122.27
2019-02-27T01:36:40.952Z,103123.97
2019-02-27T01:39:11.379Z,103118.66
2019-02-27T01:41:39.544Z,103111.15
2019-02-27T01:44:11.090Z,103108.89
2019-02-27T01:46:38.144Z,103104.36
2019-02-27T01:49:07.610Z,103098.10
2019-02-27T01:51:36.904Z,103100.63
2019-02-27T01:54:06.165Z,103089.73
2019-02-27T01:56:35.533Z,103094.10
2019-02-27T01:59:04.790Z,103097.13
2019-02-27T02:01:34.106Z,103090.55
2019-02-27T02:04:03.390Z,103088.30
2019-02-27T02:06:33.010Z,103090.32
2019-02-27T02:09:28.630Z,103089.33
2019-02-27T02:11:57.944Z,103083.09
2019-02-27T02:15:05.562Z,103082.52
2019-02-27T02:18:13.970Z,103083.67
2019-02-27T02:21:02.956Z,103082.20
2019-02-27T02:24:09.806Z,103073.30
2019-02-27T02:26:59.092Z,103071.40
2019-02-27T02:30:19.119Z,103061.98
2019-02-27T02:33:30.207Z,103058.34
2019-02-27T02:36:49.029Z,103058.16
2019-02-27T02:39:55.574Z,103048.46
2019-02-27T02:43:05.653Z,103036.99
2019-02-27T02:45:47.273Z,103041.84
2019-02-27T02:48:41.123Z,103033.11
2019-02-27T02:51:28.599Z,103034.48
2019-02-27T02:54:37.505Z,103036.66
2019-02-27T02:57:59.665Z,103034.94
2019-02-27T03:01:00.218Z,103027.55
2019-02-27T03:03:46.484Z,103022.38
2019-02-27T03:06:43.055Z,103024.61
2019-02-27T03:09:36.893Z,103019.44
2019-02-27T03:13:06.068Z,103022.02
2019-02-27T03:16:04.840Z,103015.02
2019-02-27T03:19:13.993Z,103018.95
2019-02-27T03:22:27.718Z,103018.95
2019-02-27T03:25:22.561Z,103010.14
2019-02-27T03:28:33.517Z,103015.77
2019-02-27T03:31:24.948Z,103008.33
2019-02-27T03:34:28.771Z,103002.14
2019-02-27T03:37:22.100Z,102985.09
2019-02-27T03:40:23.677Z,102993.34
2019-02-27T03:43:18.901Z,102992.47
2019-02-27T03:46:12.966Z,102989.53
2019-02-27T03:48:55.887Z,102988.03
2019-02-27T03:51:47.702Z,102985.78
2019-02-27T03:54:35.140Z,102983.92
2019-02-27T03:57:11.395Z,102983.42
2019-02-27T04:00:43.776Z,102976.87
2019-02-27T04:04:04.060Z,102975.53
2019-02-27T04:07:31.527Z,102979.47
2019-02-27T04:09:56.411Z,102977.66
2019-02-27T04:12:24.915Z,102975.85
2019-02-27T04:14:54.297Z,102972.35
2019-02-27T04:17:28.890Z,102972.37
2019-02-27T04:19:58.264Z,102968.00
2019-02-27T04:22:27.688Z,102961.88
2019-02-27T04:24:57.744Z,102964.44
2019-02-27T04:27:26.310Z,102963.05
2019-02-27T04:29:55.621Z,102958.67
2019-02-27T04:32:24.958Z,102956.94
2019-02-27T04:34:54.264Z,102951.13
2019-02-27T04:37:23.564Z,102960.25
2019-02-27T04:39:52.832Z,102958.44
2019-02-27T04:42:22.925Z,102947.51
2019-02-27T04:44:51.455Z,102951.39
2019-02-27T04:47:20.716Z,102945.27
2019-02-27T04:49:49.990Z,102944.39
2019-02-27T04:52:19.300Z,102942.20
2019-02-27T04:54:48.596Z,102939.02
2019-02-27T04:57:17.878Z,102929.34
2019-02-27T04:59:49.728Z,102931.89
2019-02-27T05:02:16.609Z,102927.89
2019-02-27T05:04:45.908Z,102928.63
2019-02-27T05:07:15.256Z,102931.50
2019-02-27T05:09:44.548Z,102930.63
2019-02-27T05:12:13.833Z,102919.20
2019-02-27T05:14:43.193Z,102919.45
2019-02-27T05:17:12.452Z,102923.12
2019-02-27T05:19:41.738Z,102918.21
2019-02-27T05:22:10.986Z,102919.00
2019-02-27T05:24:40.966Z,102915.50
2019-02-27T05:27:09.682Z,102913.70
2019-02-27T05:29:39.016Z,102911.42
2019-02-27T05:32:08.366Z,102917.99
2019-02-27T05:34:37.660Z,102917.80
2019-02-27T05:37:06.890Z,102909.03
2019-02-27T05:39:36.366Z,102911.17
2019-02-27T05:42:06.285Z,102910.72
2019-02-27T05:44:34.916Z,102913.79
2019-02-27T05:47:04.196Z,102915.47
2019-02-27T05:49:33.510Z,102909.41
2019-02-27T05:52:02.874Z,102914.52
2019-02-27T05:54:32.858Z,102913.14
2019-02-27T05:57:01.476Z,102914.39
2019-02-27T05:59:30.760Z,102912.63
2019-02-27T06:02:00.381Z,102913.08
2019-02-27T06:04:29.652Z,102911.77
2019-02-27T06:06:58.997Z,102902.16
2019-02-27T06:09:30.024Z,102901.23
2019-02-27T06:11:59.306Z,102898.11
2019-02-27T06:14:28.592Z,102887.61
2019-02-27T06:17:00.978Z,102895.48
2019-02-27T06:19:30.603Z,102899.31
2019-02-27T06:21:59.706Z,102895.84
2019-02-27T06:24:28.980Z,102898.03
2019-02-27T06:26:58.270Z,102896.42
2019-02-27T06:29:28.363Z,102899.00
2019-02-27T06:31:56.866Z,102896.95
2019-02-27T06:34:26.317Z,102902.02
2019-02-27T06:36:55.638Z,102887.17
2019-02-27T06:39:24.991Z,102895.10
2019-02-27T06:41:54.338Z,102887.98
2019-02-27T06:44:23.620Z,102892.34
2019-02-27T06:46:53.898Z,102892.84
2019-02-27T06:49:22.344Z,102891.42
2019-02-27T06:51:51.775Z,102890.91
2019-02-27T06:54:21.092Z,102890.85
2019-02-27T06:56:50.377Z,102887.37
2019-02-27T06:59:19.668Z,102890.03
2019-02-27T07:01:49.077Z,102893.60
2019-02-27T07:04:18.381Z,102882.80
2019-02-27T07:06:47.786Z,102890.52
2019-02-27T07:09:17.155Z,102890.72
2019-02-27T07:11:48.825Z,102895.64
2019-02-27T07:14:15.858Z,102894.98
2019-02-27T07:16:45.166Z,102895.28
2019-02-27T07:19:15.904Z,102890.66
2019-02-27T07:21:43.951Z,102894.86
2019-02-27T07:24:13.270Z,102889.73
2019-02-27T07:26:42.614Z,102890.82
2019-02-27T07:29:21.125Z,102883.58
2019-02-27T07:31:41.175Z,102880.38
2019-02-27T07:34:14.259Z,102878.73
2019-02-27T07:36:39.796Z,102878.73
2019-02-27T07:39:09.173Z,102875.94
2019-02-27T07:41:39.527Z,102872.46
2019-02-27T07:44:08.811Z,102872.46
2019-02-27T07:46:38.124Z,102873.34
2019-02-27T07:49:07.406Z,102879.95
2019-02-27T07:51:36.706Z,102879.52
2019-02-27T07:54:06.104Z,102868.64
2019-02-27T07:56:35.424Z,102866.40
2019-02-27T07:59:04.736Z,102866.40
2019-02-27T08:01:43.245Z,102875.80
2019-02-27T08:04:03.390Z,102869.44
2019-02-27T08:06:37.628Z,102869.44
2019-02-27T08:09:05.268Z,102830.03
2019-02-27T08:11:34.552Z,102867.06
2019-02-27T08:14:03.925Z,102880.42
2019-02-27T08:16:36.789Z,102872.62
2019-02-27T08:19:02.438Z,102871.34
2019-02-27T08:21:31.713Z,102859.54
2019-02-27T08:24:06.524Z,102866.66
2019-02-27T08:26:30.294Z,102864.96
2019-02-27T08:28:59.621Z,102851.30
2019-02-27T08:31:28.928Z,102857.95
2019-02-27T08:33:58.220Z,102860.16
2019-02-27T08:36:27.603Z,102852.67
2019-02-27T08:38:56.883Z,102852.66
2019-02-27T08:41:26.149Z,102837.20
2019-02-27T08:43:55.494Z,102840.71
2019-02-27T08:46:24.802Z,102834.52
2019-02-27T08:48:54.155Z,102833.21
2019-02-27T08:51:23.452Z,102834.92
2019-02-27T08:53:52.723Z,102829.67
2019-02-27T08:56:22.110Z,102829.61
2019-02-27T08:58:51.402Z,102819.02
2019-02-27T09:01:21.761Z,102804.95
2019-02-27T09:03:49.972Z,102812.00
2019-02-27T09:06:19.275Z,102811.01
2019-02-27T09:08:48.565Z,102802.94
2019-02-27T09:11:17.875Z,102808.23
2019-02-27T09:13:47.141Z,102804.25
2019-02-27T09:16:16.553Z,102797.69
2019-02-27T09:18:45.808Z,102793.34
2019-02-27T09:21:15.888Z,102794.66
2019-02-27T09:23:44.406Z,102787.14
2019-02-27T09:26:13.701Z,102788.92
2019-02-27T09:28:44.459Z,102780.98
2019-02-27T09:31:12.321Z,102778.78
2019-02-27T09:33:41.631Z,102778.30
2019-02-27T09:36:11.006Z,102776.52
2019-02-27T09:38:40.240Z,102780.02
2019-02-27T09:41:12.250Z,102779.98
2019-02-27T09:43:38.914Z,102767.08
2019-02-27T09:46:08.212Z,102764.32
2019-02-27T09:48:37.483Z,102766.44
2019-02-27T09:51:06.800Z,102760.23
2019-02-27T09:53:36.776Z,102756.20
2019-02-27T09:56:05.521Z,102754.82
2019-02-27T09:58:34.821Z,102760.05
2019-02-27T10:01:15.266Z,102759.09
2019-02-27T10:03:44.609Z,102760.73
2019-02-27T10:06:14.032Z,102755.31
2019-02-27T10:08:43.418Z,102758.23
2019-02-27T10:11:12.780Z,102749.23
2019-02-27T10:13:42.080Z,102746.00
2019-02-27T10:16:11.528Z,102748.98
2019-02-27T10:18:40.833Z,102739.91
2019-02-27T10:21:12.047Z,102728.28
2019-02-27T10:23:39.525Z,102732.01
2019-02-27T10:26:08.803Z,102731.08
2019-02-27T10:28:39.600Z,102730.52
2019-02-27T10:31:07.404Z,102715.77
2019-02-27T10:33:36.734Z,102720.00
2019-02-27T10:36:06.127Z,102719.77
2019-02-27T10:38:40.267Z,102710.75
2019-02-27T10:41:04.732Z,102713.67
2019-02-27T10:43:34.075Z,102705.91
2019-02-27T10:46:03.448Z,102704.45
2019-02-27T10:48:32.781Z,102697.21
2019-02-27T10:51:02.135Z,102701.66
2019-02-27T10:53:31.478Z,102696.11
2019-02-27T10:56:00.851Z,102681.73
2019-02-27T10:58:30.136Z,102678.06
2019-02-27T11:01:01.205Z,102667.66
2019-02-27T11:03:28.755Z,102669.55
2019-02-27T11:05:58.021Z,102664.40
2019-02-27T11:08:29.571Z,102664.89
2019-02-27T11:10:56.620Z,102662.41
2019-02-27T11:13:25.898Z,102661.48
2019-02-27T11:15:55.163Z,102660.24
2019-02-27T11:18:24.554Z,102652.75
2019-02-27T11:20:55.716Z,102650.59
2019-02-27T11:23:23.183Z,102648.06
2019-02-27T11:25:56.523Z,102638.91
2019-02-27T11:28:22.071Z,102634.63
2019-02-27T11:30:51.357Z,102629.95
2019-02-27T11:33:25.645Z,102628.94
2019-02-27T11:35:50.090Z,102614.01
2019-02-27T11:38:24.165Z,102611.77
2019-02-27T11:40:48.661Z,102616.86
2019-02-27T11:43:17.933Z,102607.95
2019-02-27T11:45:47.216Z,102604.30
2019-02-27T11:48:16.507Z,102591.31
2019-02-27T11:50:45.894Z,102590.25
2019-02-27T11:53:15.285Z,102583.28
2019-02-27T11:55:47.121Z,102572.37
2019-02-27T11:58:13.875Z,102571.91
2019-02-27T12:00:43.199Z,102562.30
2019-02-27T12:03:12.739Z,102560.76
2019-02-27T12:06:01.674Z,102560.12
2019-02-27T12:08:30.989Z,102544.30
2019-02-27T12:11:00.345Z,102539.14
2019-02-27T12:13:29.686Z,102527.27
2019-02-27T12:15:59.183Z,102531.34
2019-02-27T12:18:28.459Z,102528.91
2019-02-27T12:20:57.844Z,102521.98
2019-02-27T12:23:27.386Z,102514.20
2019-02-27T12:25:56.726Z,102508.98
2019-02-27T12:28:26.028Z,102504.32
2019-02-27T12:30:55.427Z,102504.19
2019-02-27T12:33:29.176Z,102500.84
2019-02-27T12:35:54.151Z,102494.42
2019-02-27T12:38:23.443Z,102492.73
2019-02-27T12:40:52.755Z,102492.94
2019-02-27T12:43:22.036Z,102485.33
2019-02-27T12:45:51.355Z,102489.69
2019-02-27T12:48:20.636Z,102478.30
2019-02-27T12:50:50.018Z,102473.13
2019-02-27T12:53:22.410Z,102475.51
2019-02-27T12:55:51.802Z,102464.23
2019-02-27T12:58:21.180Z,102457.70
2019-02-27T13:00:50.503Z,102453.18
2019-02-27T13:03:19.847Z,102441.06
2019-02-27T13:05:49.144Z,102436.28
2019-02-27T13:08:18.900Z,102442.23
2019-02-27T13:10:48.715Z,102434.20
2019-02-27T13:13:17.985Z,102432.27
2019-02-27T13:15:47.290Z,102427.11
2019-02-27T13:18:16.731Z,102420.29
2019-02-27T13:20:46.332Z,102420.08
2019-02-27T13:23:15.335Z,102415.88
2019-02-27T13:25:44.724Z,102416.11
2019-02-27T13:28:15.537Z,102414.33
2019-02-27T13:30:43.303Z,102414.84
2019-02-27T13:33:12.658Z,102403.13
2019-02-27T13:35:43.002Z,102405.02
2019-02-27T13:38:12.297Z,102398.38
2019-02-27T13:40:41.689Z,102401.19
2019-02-27T13:43:11.327Z,102395.07
2019-02-27T13:45:40.637Z,102385.89
2019-02-27T13:48:10.118Z,102388.98
2019-02-27T13:50:39.888Z,102377.28
2019-02-27T13:53:09.477Z,102375.73
2019-02-27T13:55:38.774Z,102369.11
2019-02-27T13:58:08.079Z,102358.39
2019-02-27T14:00:37.686Z,102360.85
2019-02-27T14:03:12.177Z,102348.39
2019-02-27T14:05:36.611Z,102344.23
2019-02-27T14:08:06.235Z,102352.40
2019-02-27T14:10:35.331Z,102349.23
2019-02-27T14:13:08.808Z,102342.84
2019-02-27T14:15:34.034Z,102343.20
2019-02-27T14:18:03.426Z,102339.75
2019-02-27T14:20:32.739Z,102337.66
2019-02-27T14:23:02.052Z,102326.90
2019-02-27T14:25:33.241Z,102327.47
2019-02-27T14:28:01.159Z,102334.58
2019-02-27T14:30:36.646Z,102332.13
2019-02-27T14:33:05.734Z,102323.14
2019-02-27T14:35:36.318Z,102307.30
2019-02-27T14:38:04.837Z,102320.17
2019-02-27T14:40:37.333Z,102310.69
2019-02-27T14:43:04.140Z,102310.58
2019-02-27T14:45:33.675Z,102309.83
2019-02-27T14:48:03.733Z,102300.69
2019-02-27T14:50:34.538Z,102291.81
2019-02-27T14:53:03.094Z,102291.79
2019-02-27T14:55:36.127Z,102280.55
2019-02-27T14:58:01.703Z,102279.88
2019-02-27T15:00:31.180Z,102279.69
2019-02-27T15:03:00.507Z,102273.65
2019-02-27T15:05:29.841Z,102267.41
2019-02-27T15:07:59.160Z,102263.97
2019-02-27T15:10:28.683Z,102260.09
2019-02-27T15:12:58.016Z,102261.33
2019-02-27T15:15:28.851Z,102254.94
2019-02-27T15:17:58.385Z,102246.64
2019-02-27T15:20:28.375Z,102240.55
2019-02-27T15:22:57.729Z,102232.55
2019-02-27T15:25:27.715Z,102226.87
2019-02-27T15:27:58.734Z,102227.40
2019-02-27T15:30:27.001Z,102224.47
2019-02-27T15:32:57.521Z,102214.30
2019-02-27T15:35:29.573Z,102212.53
2019-02-27T15:37:58.880Z,102204.19
2019-02-27T15:40:31.082Z,102207.05
2019-02-27T15:43:00.371Z,102201.56
2019-02-27T15:45:29.745Z,102197.77
2019-02-27T15:47:59.018Z,102191.89
2019-02-27T15:50:28.637Z,102191.50
2019-02-27T15:52:57.939Z,102189.11
2019-02-27T15:55:32.769Z,102182.42
2019-02-27T15:57:56.683Z,102181.59
2019-02-27T16:00:26.095Z,102181.42
2019-02-27T16:02:55.433Z,102180.55
2019-02-27T16:05:30.009Z,102176.02
2019-02-27T16:07:54.293Z,102180.20
2019-02-27T16:10:23.672Z,102170.61
2019-02-27T16:12:53.153Z,102173.66
2019-02-27T16:15:22.622Z,102172.87
2019-02-27T16:17:52.253Z,102161.20
2019-02-27T16:20:21.388Z,102131.55
2019-02-27T16:22:50.827Z,102166.66
2019-02-27T16:25:21.648Z,102156.56
2019-02-27T16:27:53.781Z,102158.44
2019-02-27T16:30:24.886Z,102150.55
2019-02-27T16:32:54.223Z,102150.77
2019-02-27T16:35:23.628Z,102140.39
2019-02-27T16:37:56.263Z,102139.78
2019-02-27T16:40:22.622Z,102139.64
2019-02-27T16:42:51.943Z,102133.89
2019-02-27T16:45:23.632Z,102122.52
2019-02-27T16:47:54.070Z,102127.94
2019-02-27T16:50:24.795Z,102125.37
2019-02-27T16:52:53.290Z,102124.02
2019-02-27T16:55:23.580Z,102126.47
2019-02-27T16:57:56.517Z,102126.42
2019-02-27T17:00:26.690Z,102122.79
2019-02-27T17:02:57.057Z,101820.45
2019-02-27T17:05:25.444Z,102111.16
2019-02-27T17:08:00.527Z,102115.52
2019-02-27T17:10:26.345Z,102109.12
2019-02-27T17:12:55.802Z,102107.53
2019-02-27T17:15:25.157Z,102110.71
2019-02-27T17:17:54.551Z,102104.59
2019-02-27T17:20:24.201Z,102102.39
2019-02-27T17:22:53.434Z,102099.25
2019-02-27T17:25:23.018Z,102093.91
2019-02-27T17:27:53.519Z,102087.13
2019-02-27T17:30:24.438Z,102084.74
2019-02-27T17:32:53.148Z,102084.11
2019-02-27T17:35:23.631Z,102070.17
2019-02-27T17:37:51.824Z,102069.51
2019-02-27T17:40:21.178Z,102061.25
2019-02-27T17:42:53.491Z,102057.49
2019-02-27T17:45:20.238Z,102055.89
2019-02-27T17:47:49.555Z,102055.98
2019-02-27T17:50:18.992Z,102042.41
2019-02-27T17:52:49.097Z,102043.41
2019-02-27T17:55:17.802Z,102042.67
2019-02-27T17:57:47.242Z,102039.34
2019-02-27T18:00:24.394Z,102037.27
2019-02-27T18:02:53.770Z,102021.91
2019-02-27T18:05:25.350Z,102023.79
2019-02-27T18:07:52.461Z,102012.48
2019-02-27T18:10:21.747Z,102006.82
2019-02-27T18:12:51.746Z,102001.50
2019-02-27T18:15:21.236Z,101996.09
2019-02-27T18:17:49.798Z,101999.39
2019-02-27T18:20:24.312Z,101993.58
2019-02-27T18:22:49.540Z,101994.78
2019-02-27T18:25:18.186Z,101990.27
2019-02-27T18:27:47.916Z,101991.12
2019-02-27T18:30:18.793Z,101985.75
2019-02-27T18:32:45.621Z,101980.43
2019-02-27T18:35:15.455Z,101978.56
2019-02-27T18:37:44.732Z,101975.51
2019-02-27T18:40:14.158Z,101980.33
2019-02-27T18:42:43.413Z,101968.30
2019-02-27T18:45:17.405Z,101962.21
2019-02-27T18:47:44.562Z,101966.59
2019-02-27T18:50:14.522Z,101960.48
2019-02-27T18:52:44.750Z,101955.06
2019-02-27T18:55:14.023Z,101948.41
2019-02-27T18:57:47.274Z,101944.83
2019-02-27T19:00:15.315Z,101937.31
2019-02-27T19:02:44.593Z,101936.02
2019-02-27T19:05:13.874Z,101941.06
2019-02-27T19:07:43.178Z,101925.81
2019-02-27T19:10:14.823Z,101925.50
2019-02-27T19:12:41.972Z,101924.41
2019-02-27T19:15:12.812Z,101925.09
2019-02-27T19:17:42.117Z,101925.78
2019-02-27T19:20:12.644Z,101910.12
2019-02-27T19:22:42.843Z,101907.22
2019-02-27T19:25:11.233Z,101903.42
2019-02-27T19:27:40.572Z,101901.81
2019-02-27T19:30:11.838Z,101902.92
2019-02-27T19:32:41.200Z,101906.20
2019-02-27T19:35:10.540Z,101906.34
2019-02-27T19:37:39.868Z,101901.16
2019-02-27T19:40:10.864Z,101889.84
2019-02-27T19:42:50.564Z,101897.95
2019-02-27T19:45:19.916Z,101893.28
2019-02-27T19:47:54.617Z,101898.77
2019-02-27T19:50:19.640Z,101885.70
2019-02-27T19:52:48.954Z,101896.48
2019-02-27T19:55:18.218Z,101885.44
2019-02-27T19:57:47.591Z,101877.64
2019-02-27T20:00:18.753Z,101870.61
2019-02-27T20:02:55.240Z,101862.65
2019-02-27T20:05:20.600Z,101860.16
2019-02-27T20:07:50.545Z,101862.87
2019-02-27T20:10:19.353Z,101860.68
2019-02-27T20:12:52.683Z,101852.78
2019-02-27T20:15:18.164Z,101851.02
2019-02-27T20:17:47.578Z,101850.26
2019-02-27T20:20:16.922Z,101841.12
2019-02-27T20:22:46.282Z,101843.80
2019-02-27T20:25:15.661Z,101832.64
2019-02-27T20:27:45.035Z,101836.67
2019-02-27T20:30:16.318Z,101826.47
2019-02-27T20:32:45.744Z,101830.97
2019-02-27T20:35:17.298Z,101821.25
2019-02-27T20:37:44.357Z,101810.44
2019-02-27T20:40:13.786Z,101804.72
2019-02-27T20:42:49.779Z,101800.09
2019-02-27T20:45:15.931Z,101800.75
2019-02-27T20:47:45.311Z,101799.56
2019-02-27T20:50:21.143Z,101792.13
2019-02-27T20:52:49.452Z,101783.48
2019-02-27T20:55:18.484Z,101783.17
2019-02-27T20:57:45.774Z,101780.14
2019-02-27T21:00:15.573Z,101783.57
2019-02-27T21:02:45.041Z,101775.52
2019-02-27T21:05:14.370Z,101765.70
2019-02-27T21:07:43.695Z,101770.08
2019-02-27T21:10:19.923Z,101769.21
2019-02-27T21:12:53.493Z,101768.34
2019-02-27T21:15:14.240Z,101765.50
2019-02-27T21:17:43.560Z,101763.52
2019-02-27T21:20:12.886Z,101765.05
2019-02-27T21:22:42.262Z,101753.67
2019-02-27T21:25:12.084Z,101753.47
2019-02-27T21:27:40.877Z,101751.41
2019-02-27T21:30:17.765Z,101749.00
2019-02-27T21:32:42.149Z,101740.38
2019-02-27T21:35:11.436Z,101740.59
2019-02-27T21:37:44.495Z,101740.75
2019-02-27T21:40:11.318Z,101732.47
2019-02-27T21:42:40.594Z,101725.14
2019-02-27T21:45:12.394Z,101722.58
2019-02-27T21:47:41.727Z,101715.11
2019-02-27T21:50:12.591Z,101715.52
2019-02-27T21:52:41.867Z,101711.63
2019-02-27T21:55:13.104Z,101711.22
2019-02-27T21:57:40.630Z,101712.19
2019-02-27T22:00:13.939Z,101714.45
2019-02-27T22:02:41.838Z,101713.20
2019-02-27T22:05:11.347Z,101712.39
2019-02-27T22:07:40.655Z,101712.41
2019-02-27T22:10:11.110Z,101719.50
2019-02-27T22:12:40.392Z,101712.95
2019-02-27T22:15:15.409Z,101710.30
2019-02-27T22:17:44.720Z,101702.82
2019-02-27T22:20:14.112Z,101693.09
2019-02-27T22:22:43.521Z,101697.87
2019-02-27T22:25:12.814Z,101693.11
2019-02-27T22:27:43.241Z,101695.38
2019-02-27T22:30:13.378Z,101691.08
2019-02-27T22:32:47.573Z,101701.75
2019-02-27T22:35:11.955Z,101693.50
2019-02-27T22:37:41.269Z,101696.19
2019-02-27T22:40:12.452Z,101691.41
2019-02-27T22:42:41.819Z,101689.22
2019-02-27T22:45:12.178Z,101687.89
2019-02-27T22:47:41.518Z,101681.76
2019-02-27T22:50:12.204Z,101678.17
2019-02-27T22:52:41.506Z,101680.28
2019-02-27T22:55:10.880Z,101678.96
2019-02-27T22:57:40.054Z,101671.38
2019-02-27T23:00:38.601Z,101662.11
2019-02-27T23:03:07.906Z,101665.16
2019-02-27T23:05:38.159Z,101660.81
2019-02-27T23:08:06.580Z,101651.19
2019-02-27T23:10:35.902Z,101652.56
2019-02-27T23:13:05.278Z,101646.34
2019-02-27T23:15:34.557Z,101641.11
2019-02-27T23:18:05.764Z,101644.23
2019-02-27T23:20:33.212Z,101641.61
2019-02-27T23:23:03.326Z,101635.97
2019-02-27T23:25:31.752Z,101632.96
2019-02-27T23:28:02.043Z,101629.47
2019-02-27T23:30:30.402Z,101632.20
2019-02-27T23:33:02.329Z,101635.84
2019-02-27T23:35:29.347Z,101633.27
2019-02-27T23:38:02.890Z,101634.20
2019-02-27T23:40:28.463Z,101637.41
2019-02-27T23:43:02.356Z,101627.83
2019-02-27T23:45:27.007Z,101622.64
2019-02-27T23:47:56.276Z,101623.19
2019-02-27T23:50:25.599Z,101618.84
2019-02-27T23:52:54.895Z,101611.43
2019-02-27T23:55:24.195Z,101609.34
2019-02-27T23:57:57.356Z,101610.52
